sensor_id;sensor_type;location;lat;lon;timestamp;temperature;humidity
5280;DHT22;2663;53.588;10.010;2023-12-28T00:01:50;9.20;99.90
5280;DHT22;2663;53.588;10.010;2023-12-28T00:04:17;9.20;99.90
5280;DHT22;2663;53.588;10.010;2023-12-28T00:06:44;9.30;99.90
5280;DHT22;2663;53.588;10.010;2023-12-28T00:09:11;9.30;99.90
5280;DHT22;2663;53.588;10.010;2023-12-28T00:11:38;9.20;99.90
5280;DHT22;2663;53.588;10.010;2023-12-28T00:14:06;8.50;99.90
5280;DHT22;2663;53.588;10.010;2023-12-28T00:16:33;13.20;99.90
5280;DHT22;2663;53.588;10.010;2023-12-28T00:19:00;9.20;99.90
5280;DHT22;2663;53.588;10.010;2023-12-28T00:21:29;9.10;99.90
5280;DHT22;2663;53.588;10.010;2023-12-28T00:26:24;9.10;99.90
5280;DHT22;2663;53.588;10.010;2023-12-28T00:28:50;9.10;99.90
5280;DHT22;2663;53.588;10.010;2023-12-28T00:33:45;9.10;99.90
5280;DHT22;2663;53.588;10.010;2023-12-28T00:36:11;9.00;99.90
5280;DHT22;2663;53.588;10.010;2023-12-28T00:38:38;9.00;99.90
5280;DHT22;2663;53.588;10.010;2023-12-28T00:41:05;8.90;99.90
5280;DHT22;2663;53.588;10.010;2023-12-28T00:43:31;8.80;99.90
5280;DHT22;2663;53.588;10.010;2023-12-28T00:45:58;7.10;99.90
5280;DHT22;2663;53.588;10.010;2023-12-28T00:48:25;8.80;99.90
5280;DHT22;2663;53.588;10.010;2023-12-28T00:50:52;8.70;99.90
5280;DHT22;2663;53.588;10.010;2023-12-28T00:53:21;8.70;99.90
5280;DHT22;2663;53.588;10.010;2023-12-28T00:55:49;8.70;99.90
5280;DHT22;2663;53.588;10.010;2023-12-28T00:58:15;8.70;99.90
5280;DHT22;2663;53.588;10.010;2023-12-28T01:00:42;8.70;99.90
5280;DHT22;2663;53.588;10.010;2023-12-28T01:03:09;8.60;99.90
5280;DHT22;2663;53.588;10.010;2023-12-28T01:10:30;8.70;99.90
5280;DHT22;2663;53.588;10.010;2023-12-28T01:17:51;8.70;99.90
5280;DHT22;2663;53.588;10.010;2023-12-28T01:20:18;8.80;99.90
5280;DHT22;2663;53.588;10.010;2023-12-28T01:22:45;8.80;99.90
5280;DHT22;2663;53.588;10.010;2023-12-28T01:25:12;8.80;99.90
5280;DHT22;2663;53.588;10.010;2023-12-28T01:27:38;8.80;99.90
5280;DHT22;2663;53.588;10.010;2023-12-28T01:30:06;8.80;99.90
5280;DHT22;2663;53.588;10.010;2023-12-28T01:32:33;8.80;99.90
5280;DHT22;2663;53.588;10.010;2023-12-28T01:34:59;8.80;99.90
5280;DHT22;2663;53.588;10.010;2023-12-28T01:37:26;8.80;99.90
5280;DHT22;2663;53.588;10.010;2023-12-28T01:39:57;8.90;99.90
5280;DHT22;2663;53.588;10.010;2023-12-28T01:42:23;8.90;99.90
5280;DHT22;2663;53.588;10.010;2023-12-28T01:44:50;8.90;99.90
5280;DHT22;2663;53.588;10.010;2023-12-28T01:49:44;8.90;99.90
5280;DHT22;2663;53.588;10.010;2023-12-28T01:52:11;8.90;99.90
5280;DHT22;2663;53.588;10.010;2023-12-28T01:54:38;9.00;99.90
5280;DHT22;2663;53.588;10.010;2023-12-28T01:57:06;9.00;99.90
5280;DHT22;2663;53.588;10.010;2023-12-28T01:59:33;9.00;99.90
5280;DHT22;2663;53.588;10.010;2023-12-28T02:02:00;9.10;99.90
5280;DHT22;2663;53.588;10.010;2023-12-28T02:06:57;9.10;99.90
5280;DHT22;2663;53.588;10.010;2023-12-28T02:09:24;9.10;99.90
5280;DHT22;2663;53.588;10.010;2023-12-28T02:11:52;9.10;99.90
5280;DHT22;2663;53.588;10.010;2023-12-28T02:14:21;9.10;99.90
5280;DHT22;2663;53.588;10.010;2023-12-28T02:17:03;9.10;99.90
5280;DHT22;2663;53.588;10.010;2023-12-28T02:19:32;9.20;99.90
5280;DHT22;2663;53.588;10.010;2023-12-28T02:21:59;9.10;99.90
5280;DHT22;2663;53.588;10.010;2023-12-28T02:24:27;9.20;99.90
5280;DHT22;2663;53.588;10.010;2023-12-28T02:26:54;9.20;99.90
5280;DHT22;2663;53.588;10.010;2023-12-28T02:29:21;9.20;99.90
5280;DHT22;2663;53.588;10.010;2023-12-28T02:31:58;9.20;99.90
5280;DHT22;2663;53.588;10.010;2023-12-28T02:34:31;9.30;99.90
5280;DHT22;2663;53.588;10.010;2023-12-28T02:37:01;9.40;99.90
5280;DHT22;2663;53.588;10.010;2023-12-28T02:39:29;9.20;99.90
5280;DHT22;2663;53.588;10.010;2023-12-28T02:41:57;9.20;99.90
5280;DHT22;2663;53.588;10.010;2023-12-28T02:44:24;9.20;99.90
5280;DHT22;2663;53.588;10.010;2023-12-28T02:46:51;9.20;99.90
5280;DHT22;2663;53.588;10.010;2023-12-28T02:49:17;9.20;99.90
5280;DHT22;2663;53.588;10.010;2023-12-28T02:51:45;12.10;99.90
5280;DHT22;2663;53.588;10.010;2023-12-28T02:54:12;9.20;99.90
5280;DHT22;2663;53.588;10.010;2023-12-28T02:56:40;9.20;99.90
5280;DHT22;2663;53.588;10.010;2023-12-28T02:59:07;9.30;99.90
5280;DHT22;2663;53.588;10.010;2023-12-28T03:01:34;9.20;99.90
5280;DHT22;2663;53.588;10.010;2023-12-28T03:04:00;9.30;99.90
5280;DHT22;2663;53.588;10.010;2023-12-28T03:08:54;9.20;99.90
5280;DHT22;2663;53.588;10.010;2023-12-28T03:11:21;9.30;99.90
5280;DHT22;2663;53.588;10.010;2023-12-28T03:13:48;9.30;99.90
5280;DHT22;2663;53.588;10.010;2023-12-28T03:16:15;9.30;99.90
5280;DHT22;2663;53.588;10.010;2023-12-28T03:18:41;9.30;99.90
5280;DHT22;2663;53.588;10.010;2023-12-28T03:21:08;9.30;99.90
5280;DHT22;2663;53.588;10.010;2023-12-28T03:23:35;9.20;99.90
5280;DHT22;2663;53.588;10.010;2023-12-28T03:26:02;9.30;99.90
5280;DHT22;2663;53.588;10.010;2023-12-28T03:28:28;8.80;99.90
5280;DHT22;2663;53.588;10.010;2023-12-28T03:30:55;9.20;99.90
5280;DHT22;2663;53.588;10.010;2023-12-28T03:33:22;9.20;99.90
5280;DHT22;2663;53.588;10.010;2023-12-28T03:35:48;9.30;99.90
5280;DHT22;2663;53.588;10.010;2023-12-28T03:38:15;9.30;99.90
5280;DHT22;2663;53.588;10.010;2023-12-28T03:40:42;9.30;99.90
5280;DHT22;2663;53.588;10.010;2023-12-28T03:43:09;9.30;99.90
5280;DHT22;2663;53.588;10.010;2023-12-28T03:45:35;9.30;99.90
5280;DHT22;2663;53.588;10.010;2023-12-28T03:48:02;9.20;99.90
5280;DHT22;2663;53.588;10.010;2023-12-28T03:52:57;9.20;99.90
5280;DHT22;2663;53.588;10.010;2023-12-28T03:55:25;9.20;99.90
5280;DHT22;2663;53.588;10.010;2023-12-28T04:00:19;9.20;99.90
5280;DHT22;2663;53.588;10.010;2023-12-28T04:02:47;9.20;99.90
5280;DHT22;2663;53.588;10.010;2023-12-28T04:05:17;9.20;99.90
5280;DHT22;2663;53.588;10.010;2023-12-28T04:07:44;9.30;99.90
5280;DHT22;2663;53.588;10.010;2023-12-28T04:10:11;9.30;99.90
5280;DHT22;2663;53.588;10.010;2023-12-28T04:12:37;9.20;99.90
5280;DHT22;2663;53.588;10.010;2023-12-28T04:15:04;9.20;99.90
5280;DHT22;2663;53.588;10.010;2023-12-28T04:17:31;9.30;99.90
5280;DHT22;2663;53.588;10.010;2023-12-28T04:22:25;9.30;99.90
5280;DHT22;2663;53.588;10.010;2023-12-28T04:24:52;9.30;99.90
5280;DHT22;2663;53.588;10.010;2023-12-28T04:29:46;9.30;99.90
5280;DHT22;2663;53.588;10.010;2023-12-28T04:32:13;9.30;99.90
5280;DHT22;2663;53.588;10.010;2023-12-28T04:34:39;9.30;99.90
5280;DHT22;2663;53.588;10.010;2023-12-28T04:37:06;9.30;99.90
5280;DHT22;2663;53.588;10.010;2023-12-28T04:39:33;9.30;99.90
5280;DHT22;2663;53.588;10.010;2023-12-28T04:42:00;9.30;99.90
5280;DHT22;2663;53.588;10.010;2023-12-28T04:44:27;9.30;99.90
5280;DHT22;2663;53.588;10.010;2023-12-28T04:46:54;9.40;99.90
5280;DHT22;2663;53.588;10.010;2023-12-28T04:49:20;9.30;99.90
5280;DHT22;2663;53.588;10.010;2023-12-28T04:51:47;9.30;99.90
5280;DHT22;2663;53.588;10.010;2023-12-28T04:54:14;9.30;99.90
5280;DHT22;2663;53.588;10.010;2023-12-28T04:56:41;9.30;99.90
5280;DHT22;2663;53.588;10.010;2023-12-28T04:59:08;9.30;99.90
5280;DHT22;2663;53.588;10.010;2023-12-28T05:01:41;9.30;99.90
5280;DHT22;2663;53.588;10.010;2023-12-28T05:04:08;9.30;99.90
5280;DHT22;2663;53.588;10.010;2023-12-28T05:06:37;9.20;99.90
5280;DHT22;2663;53.588;10.010;2023-12-28T05:09:04;9.30;99.90
5280;DHT22;2663;53.588;10.010;2023-12-28T05:11:31;9.30;99.90
5280;DHT22;2663;53.588;10.010;2023-12-28T05:13:57;9.30;99.90
5280;DHT22;2663;53.588;10.010;2023-12-28T05:18:51;9.30;99.90
5280;DHT22;2663;53.588;10.010;2023-12-28T05:21:18;9.30;99.90
5280;DHT22;2663;53.588;10.010;2023-12-28T05:23:45;9.30;99.90
5280;DHT22;2663;53.588;10.010;2023-12-28T05:26:12;9.30;99.90
5280;DHT22;2663;53.588;10.010;2023-12-28T05:28:38;12.60;99.90
5280;DHT22;2663;53.588;10.010;2023-12-28T05:31:05;9.30;99.90
5280;DHT22;2663;53.588;10.010;2023-12-28T05:33:32;9.30;99.90
5280;DHT22;2663;53.588;10.010;2023-12-28T05:35:59;9.40;99.90
5280;DHT22;2663;53.588;10.010;2023-12-28T05:38:25;9.40;99.90
5280;DHT22;2663;53.588;10.010;2023-12-28T05:40:52;9.30;99.90
5280;DHT22;2663;53.588;10.010;2023-12-28T05:43:19;9.40;99.90
5280;DHT22;2663;53.588;10.010;2023-12-28T05:45:45;9.40;99.90
5280;DHT22;2663;53.588;10.010;2023-12-28T05:48:12;9.40;99.90
5280;DHT22;2663;53.588;10.010;2023-12-28T05:50:39;9.40;99.90
5280;DHT22;2663;53.588;10.010;2023-12-28T05:53:06;9.50;99.90
5280;DHT22;2663;53.588;10.010;2023-12-28T05:55:33;9.50;99.90
5280;DHT22;2663;53.588;10.010;2023-12-28T05:58:00;9.50;99.90
5280;DHT22;2663;53.588;10.010;2023-12-28T06:00:27;9.50;99.90
5280;DHT22;2663;53.588;10.010;2023-12-28T06:02:54;9.50;99.90
5280;DHT22;2663;53.588;10.010;2023-12-28T06:05:21;9.60;99.90
5280;DHT22;2663;53.588;10.010;2023-12-28T06:07:47;9.60;99.90
5280;DHT22;2663;53.588;10.010;2023-12-28T06:12:41;9.60;99.90
5280;DHT22;2663;53.588;10.010;2023-12-28T06:15:09;9.70;99.90
5280;DHT22;2663;53.588;10.010;2023-12-28T06:17:35;9.70;99.90
5280;DHT22;2663;53.588;10.010;2023-12-28T06:20:02;9.70;99.90
5280;DHT22;2663;53.588;10.010;2023-12-28T06:22:29;9.80;99.90
5280;DHT22;2663;53.588;10.010;2023-12-28T06:24:56;9.80;99.90
5280;DHT22;2663;53.588;10.010;2023-12-28T06:27:23;9.80;99.90
5280;DHT22;2663;53.588;10.010;2023-12-28T06:29:50;9.90;99.90
5280;DHT22;2663;53.588;10.010;2023-12-28T06:32:17;9.90;99.90
5280;DHT22;2663;53.588;10.010;2023-12-28T06:34:44;9.90;99.90
5280;DHT22;2663;53.588;10.010;2023-12-28T06:37:10;9.90;99.90
5280;DHT22;2663;53.588;10.010;2023-12-28T06:39:38;10.00;99.90
5280;DHT22;2663;53.588;10.010;2023-12-28T06:42:05;9.90;99.90
5280;DHT22;2663;53.588;10.010;2023-12-28T06:44:32;10.00;99.90
5280;DHT22;2663;53.588;10.010;2023-12-28T06:46:59;10.10;99.90
5280;DHT22;2663;53.588;10.010;2023-12-28T06:49:26;10.10;99.90
5280;DHT22;2663;53.588;10.010;2023-12-28T06:51:53;10.30;99.90
5280;DHT22;2663;53.588;10.010;2023-12-28T06:54:19;10.30;99.90
5280;DHT22;2663;53.588;10.010;2023-12-28T06:56:46;10.30;99.90
5280;DHT22;2663;53.588;10.010;2023-12-28T06:59:13;10.30;99.90
5280;DHT22;2663;53.588;10.010;2023-12-28T07:01:40;10.20;99.90
5280;DHT22;2663;53.588;10.010;2023-12-28T07:04:07;10.30;99.90
5280;DHT22;2663;53.588;10.010;2023-12-28T07:06:34;10.20;99.90
5280;DHT22;2663;53.588;10.010;2023-12-28T07:09:01;10.20;99.90
5280;DHT22;2663;53.588;10.010;2023-12-28T07:11:28;10.20;99.90
5280;DHT22;2663;53.588;10.010;2023-12-28T07:13:55;10.20;99.90
5280;DHT22;2663;53.588;10.010;2023-12-28T07:16:22;10.10;99.90
5280;DHT22;2663;53.588;10.010;2023-12-28T07:18:49;10.60;99.90
5280;DHT22;2663;53.588;10.010;2023-12-28T07:21:16;10.30;99.90
5280;DHT22;2663;53.588;10.010;2023-12-28T07:23:43;10.30;99.90
5280;DHT22;2663;53.588;10.010;2023-12-28T07:26:15;10.30;99.90
5280;DHT22;2663;53.588;10.010;2023-12-28T07:31:11;10.30;99.90
5280;DHT22;2663;53.588;10.010;2023-12-28T07:33:48;10.30;99.90
5280;DHT22;2663;53.588;10.010;2023-12-28T07:36:15;10.30;99.90
5280;DHT22;2663;53.588;10.010;2023-12-28T07:38:42;10.40;99.90
5280;DHT22;2663;53.588;10.010;2023-12-28T07:41:08;10.40;99.90
5280;DHT22;2663;53.588;10.010;2023-12-28T07:43:35;10.40;99.90
5280;DHT22;2663;53.588;10.010;2023-12-28T07:46:03;10.40;99.90
5280;DHT22;2663;53.588;10.010;2023-12-28T07:48:30;10.30;99.90
5280;DHT22;2663;53.588;10.010;2023-12-28T07:50:57;10.30;99.90
5280;DHT22;2663;53.588;10.010;2023-12-28T07:53:24;10.40;99.90
5280;DHT22;2663;53.588;10.010;2023-12-28T07:55:54;10.40;99.90
5280;DHT22;2663;53.588;10.010;2023-12-28T08:00:47;10.40;99.90
5280;DHT22;2663;53.588;10.010;2023-12-28T08:03:15;10.40;99.90
5280;DHT22;2663;53.588;10.010;2023-12-28T08:08:09;10.40;99.90
5280;DHT22;2663;53.588;10.010;2023-12-28T08:10:36;10.40;99.90
5280;DHT22;2663;53.588;10.010;2023-12-28T08:13:03;10.50;99.90
5280;DHT22;2663;53.588;10.010;2023-12-28T08:15:29;10.50;99.90
5280;DHT22;2663;53.588;10.010;2023-12-28T08:17:56;10.50;99.90
5280;DHT22;2663;53.588;10.010;2023-12-28T08:20:23;10.50;99.90
5280;DHT22;2663;53.588;10.010;2023-12-28T08:22:50;10.60;99.90
5280;DHT22;2663;53.588;10.010;2023-12-28T08:25:36;10.70;99.90
5280;DHT22;2663;53.588;10.010;2023-12-28T08:28:03;10.60;99.90
5280;DHT22;2663;53.588;10.010;2023-12-28T08:30:29;10.70;99.90
5280;DHT22;2663;53.588;10.010;2023-12-28T08:32:56;10.70;99.90
5280;DHT22;2663;53.588;10.010;2023-12-28T08:35:23;10.70;99.90
5280;DHT22;2663;53.588;10.010;2023-12-28T08:37:50;10.70;99.90
5280;DHT22;2663;53.588;10.010;2023-12-28T08:40:16;10.80;99.90
5280;DHT22;2663;53.588;10.010;2023-12-28T08:42:43;10.80;99.90
5280;DHT22;2663;53.588;10.010;2023-12-28T08:45:11;10.80;99.90
5280;DHT22;2663;53.588;10.010;2023-12-28T08:47:38;10.80;99.90
5280;DHT22;2663;53.588;10.010;2023-12-28T08:50:05;10.80;99.90
5280;DHT22;2663;53.588;10.010;2023-12-28T08:52:32;10.80;99.90
5280;DHT22;2663;53.588;10.010;2023-12-28T08:54:59;10.90;99.90
5280;DHT22;2663;53.588;10.010;2023-12-28T08:57:28;10.90;99.90
5280;DHT22;2663;53.588;10.010;2023-12-28T09:00:08;11.00;99.90
5280;DHT22;2663;53.588;10.010;2023-12-28T09:02:35;10.90;99.90
5280;DHT22;2663;53.588;10.010;2023-12-28T09:05:02;10.90;99.90
5280;DHT22;2663;53.588;10.010;2023-12-28T09:07:28;10.90;99.90
5280;DHT22;2663;53.588;10.010;2023-12-28T09:09:55;11.00;99.90
5280;DHT22;2663;53.588;10.010;2023-12-28T09:12:22;11.00;99.90
5280;DHT22;2663;53.588;10.010;2023-12-28T09:14:49;11.10;99.90
5280;DHT22;2663;53.588;10.010;2023-12-28T09:17:21;11.10;99.90
5280;DHT22;2663;53.588;10.010;2023-12-28T09:19:49;11.10;99.90
5280;DHT22;2663;53.588;10.010;2023-12-28T09:22:15;11.10;99.90
5280;DHT22;2663;53.588;10.010;2023-12-28T09:24:42;11.10;99.90
5280;DHT22;2663;53.588;10.010;2023-12-28T09:27:09;11.20;99.90
5280;DHT22;2663;53.588;10.010;2023-12-28T09:29:36;11.10;99.90
5280;DHT22;2663;53.588;10.010;2023-12-28T09:32:03;11.20;99.90
5280;DHT22;2663;53.588;10.010;2023-12-28T09:34:30;11.20;99.90
5280;DHT22;2663;53.588;10.010;2023-12-28T09:36:57;11.20;99.90
5280;DHT22;2663;53.588;10.010;2023-12-28T09:39:24;11.20;99.90
5280;DHT22;2663;53.588;10.010;2023-12-28T09:42:20;11.30;99.90
5280;DHT22;2663;53.588;10.010;2023-12-28T09:44:51;11.30;99.90
5280;DHT22;2663;53.588;10.010;2023-12-28T09:47:18;11.30;99.90
5280;DHT22;2663;53.588;10.010;2023-12-28T09:49:45;11.30;99.90
5280;DHT22;2663;53.588;10.010;2023-12-28T09:52:13;11.30;99.90
5280;DHT22;2663;53.588;10.010;2023-12-28T09:54:40;11.30;99.90
5280;DHT22;2663;53.588;10.010;2023-12-28T09:57:07;11.40;99.90
5280;DHT22;2663;53.588;10.010;2023-12-28T09:59:35;11.30;99.90
5280;DHT22;2663;53.588;10.010;2023-12-28T10:02:02;11.30;99.90
5280;DHT22;2663;53.588;10.010;2023-12-28T10:04:29;11.40;99.90
5280;DHT22;2663;53.588;10.010;2023-12-28T10:06:56;11.40;99.90
5280;DHT22;2663;53.588;10.010;2023-12-28T10:09:24;11.40;99.90
5280;DHT22;2663;53.588;10.010;2023-12-28T10:11:54;11.40;99.90
5280;DHT22;2663;53.588;10.010;2023-12-28T10:14:20;11.40;99.90
5280;DHT22;2663;53.588;10.010;2023-12-28T10:16:47;11.40;99.90
5280;DHT22;2663;53.588;10.010;2023-12-28T10:19:14;11.40;99.90
5280;DHT22;2663;53.588;10.010;2023-12-28T10:21:42;11.50;99.90
5280;DHT22;2663;53.588;10.010;2023-12-28T10:24:10;11.40;99.90
5280;DHT22;2663;53.588;10.010;2023-12-28T10:26:37;11.50;99.90
5280;DHT22;2663;53.588;10.010;2023-12-28T10:29:04;11.50;99.90
5280;DHT22;2663;53.588;10.010;2023-12-28T10:31:32;11.50;99.90
5280;DHT22;2663;53.588;10.010;2023-12-28T10:33:59;11.50;99.90
5280;DHT22;2663;53.588;10.010;2023-12-28T10:36:31;11.60;99.90
5280;DHT22;2663;53.588;10.010;2023-12-28T10:39:00;11.60;99.90
5280;DHT22;2663;53.588;10.010;2023-12-28T10:41:29;11.60;99.90
5280;DHT22;2663;53.588;10.010;2023-12-28T10:44:02;11.60;99.90
5280;DHT22;2663;53.588;10.010;2023-12-28T10:46:39;10.80;99.90
5280;DHT22;2663;53.588;10.010;2023-12-28T10:49:16;11.50;99.90
5280;DHT22;2663;53.588;10.010;2023-12-28T10:51:44;11.60;99.90
5280;DHT22;2663;53.588;10.010;2023-12-28T10:54:33;11.60;99.90
5280;DHT22;2663;53.588;10.010;2023-12-28T10:57:18;11.60;99.90
5280;DHT22;2663;53.588;10.010;2023-12-28T11:02:52;11.70;99.90
5280;DHT22;2663;53.588;10.010;2023-12-28T11:05:21;11.70;99.90
5280;DHT22;2663;53.588;10.010;2023-12-28T11:07:50;11.70;99.90
5280;DHT22;2663;53.588;10.010;2023-12-28T11:10:24;11.70;99.90
5280;DHT22;2663;53.588;10.010;2023-12-28T11:12:52;11.70;99.90
5280;DHT22;2663;53.588;10.010;2023-12-28T11:15:20;11.70;99.90
5280;DHT22;2663;53.588;10.010;2023-12-28T11:17:47;11.70;99.90
5280;DHT22;2663;53.588;10.010;2023-12-28T11:20:15;11.70;99.90
5280;DHT22;2663;53.588;10.010;2023-12-28T11:22:42;11.70;99.90
5280;DHT22;2663;53.588;10.010;2023-12-28T11:25:16;11.80;99.90
5280;DHT22;2663;53.588;10.010;2023-12-28T11:27:47;11.70;99.90
5280;DHT22;2663;53.588;10.010;2023-12-28T11:30:14;11.80;99.90
5280;DHT22;2663;53.588;10.010;2023-12-28T11:32:42;11.60;99.90
5280;DHT22;2663;53.588;10.010;2023-12-28T11:35:13;11.80;99.90
5280;DHT22;2663;53.588;10.010;2023-12-28T11:37:46;11.80;99.90
5280;DHT22;2663;53.588;10.010;2023-12-28T11:40:18;11.70;99.90
5280;DHT22;2663;53.588;10.010;2023-12-28T11:42:50;11.70;99.90
5280;DHT22;2663;53.588;10.010;2023-12-28T11:45:18;11.80;99.90
5280;DHT22;2663;53.588;10.010;2023-12-28T11:47:45;11.80;99.90
5280;DHT22;2663;53.588;10.010;2023-12-28T11:50:13;11.70;99.90
5280;DHT22;2663;53.588;10.010;2023-12-28T11:52:40;11.70;99.90
5280;DHT22;2663;53.588;10.010;2023-12-28T11:55:10;11.70;99.90
5280;DHT22;2663;53.588;10.010;2023-12-28T11:57:37;11.70;99.90
5280;DHT22;2663;53.588;10.010;2023-12-28T12:00:05;11.70;99.90
5280;DHT22;2663;53.588;10.010;2023-12-28T12:02:34;11.70;99.90
5280;DHT22;2663;53.588;10.010;2023-12-28T12:05:00;11.70;99.90
5280;DHT22;2663;53.588;10.010;2023-12-28T12:07:29;11.70;99.90
5280;DHT22;2663;53.588;10.010;2023-12-28T12:09:59;11.70;99.90
5280;DHT22;2663;53.588;10.010;2023-12-28T12:12:27;11.80;99.90
5280;DHT22;2663;53.588;10.010;2023-12-28T12:14:54;11.80;99.90
5280;DHT22;2663;53.588;10.010;2023-12-28T12:17:22;11.80;99.90
5280;DHT22;2663;53.588;10.010;2023-12-28T12:19:49;11.80;99.90
5280;DHT22;2663;53.588;10.010;2023-12-28T12:22:18;11.80;99.90
5280;DHT22;2663;53.588;10.010;2023-12-28T12:24:47;11.80;99.90
5280;DHT22;2663;53.588;10.010;2023-12-28T12:27:15;11.80;99.90
5280;DHT22;2663;53.588;10.010;2023-12-28T12:29:42;11.70;99.90
5280;DHT22;2663;53.588;10.010;2023-12-28T12:32:09;11.80;99.90
5280;DHT22;2663;53.588;10.010;2023-12-28T12:34:36;11.80;99.90
5280;DHT22;2663;53.588;10.010;2023-12-28T12:37:04;11.80;99.90
5280;DHT22;2663;53.588;10.010;2023-12-28T12:39:31;11.80;99.90
5280;DHT22;2663;53.588;10.010;2023-12-28T12:41:59;11.80;99.90
5280;DHT22;2663;53.588;10.010;2023-12-28T12:44:25;11.90;99.90
5280;DHT22;2663;53.588;10.010;2023-12-28T12:46:59;11.90;99.90
5280;DHT22;2663;53.588;10.010;2023-12-28T12:49:26;11.90;99.90
5280;DHT22;2663;53.588;10.010;2023-12-28T12:51:54;11.90;99.90
5280;DHT22;2663;53.588;10.010;2023-12-28T12:54:21;11.90;99.90
5280;DHT22;2663;53.588;10.010;2023-12-28T12:56:49;11.90;99.90
5280;DHT22;2663;53.588;10.010;2023-12-28T12:59:16;11.80;99.90
5280;DHT22;2663;53.588;10.010;2023-12-28T13:01:45;11.90;99.90
5280;DHT22;2663;53.588;10.010;2023-12-28T13:04:16;11.90;99.90
5280;DHT22;2663;53.588;10.010;2023-12-28T13:06:44;11.90;99.90
5280;DHT22;2663;53.588;10.010;2023-12-28T13:09:10;11.90;99.90
5280;DHT22;2663;53.588;10.010;2023-12-28T13:11:38;11.80;99.90
5280;DHT22;2663;53.588;10.010;2023-12-28T13:14:05;11.80;99.90
5280;DHT22;2663;53.588;10.010;2023-12-28T13:16:32;11.80;99.90
5280;DHT22;2663;53.588;10.010;2023-12-28T13:18:59;11.90;99.90
5280;DHT22;2663;53.588;10.010;2023-12-28T13:21:26;11.90;99.90
5280;DHT22;2663;53.588;10.010;2023-12-28T13:23:52;11.90;99.90
5280;DHT22;2663;53.588;10.010;2023-12-28T13:26:19;11.80;99.90
5280;DHT22;2663;53.588;10.010;2023-12-28T13:28:46;11.90;99.90
5280;DHT22;2663;53.588;10.010;2023-12-28T13:31:13;11.90;99.90
5280;DHT22;2663;53.588;10.010;2023-12-28T13:33:39;11.90;99.90
5280;DHT22;2663;53.588;10.010;2023-12-28T13:36:06;11.90;99.90
5280;DHT22;2663;53.588;10.010;2023-12-28T13:38:33;11.90;99.90
5280;DHT22;2663;53.588;10.010;2023-12-28T13:41:00;12.70;99.90
5280;DHT22;2663;53.588;10.010;2023-12-28T13:43:27;13.20;99.90
5280;DHT22;2663;53.588;10.010;2023-12-28T13:45:53;12.90;99.90
5280;DHT22;2663;53.588;10.010;2023-12-28T13:48:20;12.10;99.90
5280;DHT22;2663;53.588;10.010;2023-12-28T13:50:47;12.10;99.90
5280;DHT22;2663;53.588;10.010;2023-12-28T13:53:14;12.00;99.90
5280;DHT22;2663;53.588;10.010;2023-12-28T13:55:40;11.90;99.90
5280;DHT22;2663;53.588;10.010;2023-12-28T13:58:07;11.80;99.90
5280;DHT22;2663;53.588;10.010;2023-12-28T14:00:34;11.80;99.90
5280;DHT22;2663;53.588;10.010;2023-12-28T14:03:02;11.80;99.90
5280;DHT22;2663;53.588;10.010;2023-12-28T14:05:29;11.70;99.90
5280;DHT22;2663;53.588;10.010;2023-12-28T14:08:01;11.80;99.90
5280;DHT22;2663;53.588;10.010;2023-12-28T14:10:29;11.70;99.90
5280;DHT22;2663;53.588;10.010;2023-12-28T14:12:56;11.60;99.90
5280;DHT22;2663;53.588;10.010;2023-12-28T14:15:24;11.60;99.90
5280;DHT22;2663;53.588;10.010;2023-12-28T14:17:50;11.70;99.90
5280;DHT22;2663;53.588;10.010;2023-12-28T14:20:17;11.50;99.90
5280;DHT22;2663;53.588;10.010;2023-12-28T14:22:44;11.50;99.90
5280;DHT22;2663;53.588;10.010;2023-12-28T14:25:11;11.60;99.90
5280;DHT22;2663;53.588;10.010;2023-12-28T14:27:38;11.60;99.90
5280;DHT22;2663;53.588;10.010;2023-12-28T14:30:06;11.60;99.90
5280;DHT22;2663;53.588;10.010;2023-12-28T14:32:36;11.60;99.90
5280;DHT22;2663;53.588;10.010;2023-12-28T14:35:04;11.70;99.90
5280;DHT22;2663;53.588;10.010;2023-12-28T14:37:31;11.60;99.90
5280;DHT22;2663;53.588;10.010;2023-12-28T14:39:58;11.60;99.90
5280;DHT22;2663;53.588;10.010;2023-12-28T14:42:25;11.70;99.90
5280;DHT22;2663;53.588;10.010;2023-12-28T14:44:52;11.70;99.90
5280;DHT22;2663;53.588;10.010;2023-12-28T14:47:18;11.70;99.90
5280;DHT22;2663;53.588;10.010;2023-12-28T14:49:45;11.70;99.90
5280;DHT22;2663;53.588;10.010;2023-12-28T14:52:12;11.70;99.90
5280;DHT22;2663;53.588;10.010;2023-12-28T14:54:39;11.70;99.90
5280;DHT22;2663;53.588;10.010;2023-12-28T14:57:05;11.70;99.90
5280;DHT22;2663;53.588;10.010;2023-12-28T14:59:32;11.70;99.90
5280;DHT22;2663;53.588;10.010;2023-12-28T15:01:59;11.70;99.90
5280;DHT22;2663;53.588;10.010;2023-12-28T15:04:26;11.70;99.90
5280;DHT22;2663;53.588;10.010;2023-12-28T15:06:53;11.70;99.90
5280;DHT22;2663;53.588;10.010;2023-12-28T15:09:20;11.70;99.90
5280;DHT22;2663;53.588;10.010;2023-12-28T15:11:47;11.70;99.90
5280;DHT22;2663;53.588;10.010;2023-12-28T15:14:15;11.60;99.90
5280;DHT22;2663;53.588;10.010;2023-12-28T15:16:43;11.70;99.90
5280;DHT22;2663;53.588;10.010;2023-12-28T15:19:12;9.40;99.90
5280;DHT22;2663;53.588;10.010;2023-12-28T15:21:39;11.70;99.90
5280;DHT22;2663;53.588;10.010;2023-12-28T15:24:07;11.70;99.90
5280;DHT22;2663;53.588;10.010;2023-12-28T15:26:34;11.70;99.90
5280;DHT22;2663;53.588;10.010;2023-12-28T15:29:01;11.70;99.90
5280;DHT22;2663;53.588;10.010;2023-12-28T15:31:27;11.70;99.90
5280;DHT22;2663;53.588;10.010;2023-12-28T15:33:54;11.70;99.90
5280;DHT22;2663;53.588;10.010;2023-12-28T15:36:21;11.60;99.90
5280;DHT22;2663;53.588;10.010;2023-12-28T15:38:48;11.50;99.90
5280;DHT22;2663;53.588;10.010;2023-12-28T15:41:15;11.40;99.90
5280;DHT22;2663;53.588;10.010;2023-12-28T15:43:41;11.40;99.90
5280;DHT22;2663;53.588;10.010;2023-12-28T15:46:08;11.40;99.90
5280;DHT22;2663;53.588;10.010;2023-12-28T15:48:35;11.40;99.90
5280;DHT22;2663;53.588;10.010;2023-12-28T15:51:07;11.40;99.90
5280;DHT22;2663;53.588;10.010;2023-12-28T15:53:34;11.30;99.90
5280;DHT22;2663;53.588;10.010;2023-12-28T15:56:01;11.40;99.90
5280;DHT22;2663;53.588;10.010;2023-12-28T15:58:43;11.40;99.90
5280;DHT22;2663;53.588;10.010;2023-12-28T16:01:10;11.40;99.90
5280;DHT22;2663;53.588;10.010;2023-12-28T16:03:37;11.40;99.90
5280;DHT22;2663;53.588;10.010;2023-12-28T16:06:04;11.30;99.90
5280;DHT22;2663;53.588;10.010;2023-12-28T16:08:31;11.30;99.90
5280;DHT22;2663;53.588;10.010;2023-12-28T16:10:58;11.30;99.90
5280;DHT22;2663;53.588;10.010;2023-12-28T16:13:27;11.40;99.90
5280;DHT22;2663;53.588;10.010;2023-12-28T16:15:54;11.30;99.90
5280;DHT22;2663;53.588;10.010;2023-12-28T16:18:21;11.30;99.90
5280;DHT22;2663;53.588;10.010;2023-12-28T16:20:49;11.30;99.90
5280;DHT22;2663;53.588;10.010;2023-12-28T16:23:16;11.30;99.90
5280;DHT22;2663;53.588;10.010;2023-12-28T16:25:42;11.40;99.90
5280;DHT22;2663;53.588;10.010;2023-12-28T16:28:09;11.30;99.90
5280;DHT22;2663;53.588;10.010;2023-12-28T16:30:38;11.40;99.90
5280;DHT22;2663;53.588;10.010;2023-12-28T16:33:05;11.30;99.90
5280;DHT22;2663;53.588;10.010;2023-12-28T16:35:32;11.40;99.90
5280;DHT22;2663;53.588;10.010;2023-12-28T16:37:59;11.30;99.90
5280;DHT22;2663;53.588;10.010;2023-12-28T16:40:26;11.30;99.90
5280;DHT22;2663;53.588;10.010;2023-12-28T16:42:53;11.30;99.90